createdAt,value
2018-09-28T00:04:25.401Z,6.30
2018-09-28T00:09:17.970Z,8.37
2018-09-28T00:14:10.544Z,8.17
2018-09-28T00:19:03.145Z,7.83
2018-09-28T00:23:55.750Z,7.97
2018-09-28T00:28:48.417Z,5.67
2018-09-28T00:33:41.026Z,5.50
2018-09-28T00:38:33.655Z,7.70
2018-09-28T00:43:26.296Z,7.50
2018-09-28T00:48:18.935Z,7.97
2018-09-28T00:53:11.526Z,6.00
2018-09-28T00:58:04.152Z,5.73
2018-09-28T01:02:56.754Z,7.80
2018-09-28T01:07:49.378Z,9.73
2018-09-28T01:12:42.105Z,8.07
2018-09-28T01:17:34.701Z,5.83
2018-09-28T01:22:27.271Z,7.73
2018-09-28T01:27:20.040Z,6.43
2018-09-28T01:32:12.683Z,6.33
2018-09-28T01:37:05.307Z,8.17
2018-09-28T01:41:57.951Z,7.50
2018-09-28T01:46:50.555Z,7.13
2018-09-28T01:51:43.176Z,8.50
2018-09-28T01:56:35.791Z,7.63
2018-09-28T02:01:28.455Z,10.40
2018-09-28T02:06:21.117Z,8.70
2018-09-28T02:11:13.737Z,8.77
2018-09-28T02:16:06.418Z,10.53
2018-09-28T02:20:59.067Z,8.63
2018-09-28T02:25:51.738Z,10.43
2018-09-28T02:30:44.323Z,11.97
2018-09-28T02:35:36.923Z,8.80
2018-09-28T02:40:29.539Z,10.57
2018-09-28T02:45:22.202Z,11.07
2018-09-28T02:50:14.869Z,12.77
2018-09-28T02:55:07.544Z,10.40
2018-09-28T03:00:00.148Z,11.17
2018-09-28T03:04:52.804Z,10.80
2018-09-28T03:09:45.511Z,11.50
2018-09-28T03:14:38.123Z,9.63
2018-09-28T03:19:30.812Z,12.67
2018-09-28T03:24:23.370Z,12.97
2018-09-28T03:29:15.974Z,13.63
2018-09-28T03:34:08.632Z,16.60
2018-09-28T03:39:01.283Z,14.77
2018-09-28T03:43:53.975Z,13.60
2018-09-28T03:48:46.609Z,13.47
2018-09-28T03:53:39.207Z,14.67
2018-09-28T03:58:31.888Z,20.53
2018-09-28T04:03:24.561Z,15.53
2018-09-28T04:08:17.229Z,15.77
2018-09-28T04:13:09.836Z,15.00
2018-09-28T04:18:02.487Z,11.67
2018-09-28T04:22:55.173Z,14.33
2018-09-28T04:27:47.821Z,14.30
2018-09-28T04:32:40.429Z,15.60
2018-09-28T04:37:33.119Z,16.03
2018-09-28T04:42:25.824Z,20.80
2018-09-28T04:47:18.538Z,14.20
2018-09-28T04:52:11.187Z,14.67
2018-09-28T04:57:04.208Z,13.27
2018-09-28T05:01:56.904Z,15.30
2018-09-28T05:06:49.618Z,14.53
2018-09-28T05:11:42.630Z,15.37
2018-09-28T05:16:35.245Z,19.33
2018-09-28T05:21:27.881Z,16.07
2018-09-28T05:26:20.592Z,14.37
2018-09-28T05:31:13.343Z,17.37
2018-09-28T05:36:05.986Z,17.27
2018-09-28T05:40:58.660Z,13.57
2018-09-28T05:45:51.362Z,16.87
2018-09-28T05:50:43.987Z,20.50
2018-09-28T05:55:36.783Z,15.70
2018-09-28T06:00:36.237Z,16.00
2018-09-28T06:05:31.792Z,13.17
2018-09-28T06:10:24.386Z,15.73
2018-09-28T06:15:17.473Z,12.23
2018-09-28T06:20:10.479Z,15.33
2018-09-28T06:25:03.504Z,13.90
2018-09-28T06:29:56.562Z,9.47
2018-09-28T06:34:49.540Z,9.77
2018-09-28T06:39:42.375Z,6.03
2018-09-28T06:44:35.345Z,10.97
2018-09-28T06:50:31.579Z,8.00
2018-09-28T06:55:24.363Z,9.07
2018-09-28T07:00:17.444Z,8.83
2018-09-28T07:05:10.412Z,5.37
2018-09-28T07:10:03.162Z,11.27
2018-09-28T07:14:56.065Z,6.53
2018-09-28T07:19:48.934Z,5.57
2018-09-28T07:24:41.806Z,9.93
2018-09-28T07:29:34.649Z,8.53
2018-09-28T07:34:27.619Z,9.13
2018-09-28T07:39:20.537Z,11.33
2018-09-28T07:44:13.468Z,12.00
2018-09-28T07:49:06.685Z,10.73
2018-09-28T07:53:59.565Z,11.23
2018-09-28T07:58:52.454Z,9.87
2018-09-28T08:03:45.632Z,12.47
2018-09-28T08:08:38.603Z,11.77
2018-09-28T08:13:31.501Z,14.13
2018-09-28T08:18:24.544Z,15.60
2018-09-28T08:23:17.498Z,12.13
2018-09-28T08:28:10.376Z,12.73
2018-09-28T08:33:03.127Z,12.20
2018-09-28T08:37:55.766Z,12.87
2018-09-28T08:42:48.371Z,10.43
2018-09-28T08:47:41.144Z,11.10
2018-09-28T08:52:34.011Z,15.60
2018-09-28T08:57:26.836Z,12.47
2018-09-28T09:02:19.538Z,8.53
2018-09-28T09:07:12.139Z,11.77
2018-09-28T09:12:04.804Z,12.27
2018-09-28T09:16:57.519Z,12.10
2018-09-28T09:21:50.183Z,11.00
2018-09-28T09:26:42.848Z,8.23
2018-09-28T09:31:35.555Z,7.90
2018-09-28T09:36:28.212Z,10.13
2018-09-28T09:41:20.903Z,8.63
2018-09-28T09:46:13.527Z,6.30
2018-09-28T09:51:06.400Z,9.10
2018-09-28T09:56:01.856Z,8.30
2018-09-28T10:01:00.787Z,6.63
2018-09-28T10:05:53.458Z,8.67
2018-09-28T10:10:46.037Z,9.00
2018-09-28T10:15:38.683Z,7.73
2018-09-28T10:20:31.289Z,6.60
2018-09-28T10:25:24.163Z,6.60
2018-09-28T10:30:16.936Z,7.23
2018-09-28T10:35:09.576Z,6.83
2018-09-28T10:40:02.284Z,7.33
2018-09-28T10:44:54.903Z,7.70
2018-09-28T10:49:47.561Z,9.97
2018-09-28T10:54:40.183Z,7.30
2018-09-28T10:59:32.892Z,5.30
2018-09-28T11:04:25.766Z,5.93
2018-09-28T11:09:18.453Z,9.47
2018-09-28T11:14:11.050Z,6.07
2018-09-28T11:19:03.939Z,7.83
2018-09-28T11:23:56.506Z,6.30
2018-09-28T11:28:49.127Z,7.33
2018-09-28T11:33:41.917Z,7.20
2018-09-28T11:38:34.775Z,8.47
2018-09-28T11:43:27.468Z,5.43
2018-09-28T11:48:20.043Z,7.83
2018-09-28T11:53:12.690Z,4.93
2018-09-28T11:58:05.405Z,17.40
2018-09-28T12:02:58.278Z,5.80
2018-09-28T12:07:50.945Z,5.93
2018-09-28T12:12:44.527Z,7.30
2018-09-28T12:17:37.161Z,7.70
2018-09-28T12:22:29.812Z,6.63
2018-09-28T12:27:22.555Z,4.30
2018-09-28T12:32:15.196Z,12.07
2018-09-28T12:37:07.918Z,5.27
2018-09-28T12:42:00.536Z,6.03
2018-09-28T12:46:53.215Z,6.13
2018-09-28T12:51:45.889Z,9.47
2018-09-28T12:56:38.605Z,7.67
2018-09-28T13:01:32.335Z,3.97
2018-09-28T13:06:25.005Z,5.17
2018-09-28T13:11:17.856Z,5.60
2018-09-28T13:16:10.667Z,5.67
2018-09-28T13:21:03.461Z,5.73
2018-09-28T13:25:56.127Z,8.23
2018-09-28T13:30:48.816Z,7.00
2018-09-28T13:35:41.527Z,5.33
2018-09-28T13:40:34.174Z,6.03
2018-09-28T13:45:26.893Z,9.30
2018-09-28T13:50:19.559Z,6.27
2018-09-28T13:55:12.342Z,9.20
2018-09-28T14:00:05.778Z,7.03
2018-09-28T14:04:58.547Z,9.70
2018-09-28T14:09:51.195Z,6.57
2018-09-28T14:14:43.904Z,5.00
2018-09-28T14:19:36.565Z,7.33
2018-09-28T14:24:29.360Z,5.30
2018-09-28T14:29:22.923Z,6.87
2018-09-28T14:34:15.580Z,4.83
2018-09-28T14:39:09.153Z,7.10
2018-09-28T14:44:01.807Z,7.00
2018-09-28T14:48:54.643Z,7.83
2018-09-28T14:53:47.237Z,4.23
2018-09-28T14:58:39.930Z,3.93
2018-09-28T15:03:32.613Z,4.03
2018-09-28T15:08:25.368Z,5.20
2018-09-28T15:13:18.031Z,6.50
2018-09-28T15:18:10.917Z,6.53
2018-09-28T15:23:03.535Z,5.07
2018-09-28T15:27:56.136Z,7.10
2018-09-28T15:32:48.856Z,10.67
2018-09-28T15:37:41.520Z,9.23
2018-09-28T15:42:34.211Z,7.83
2018-09-28T15:47:28.028Z,8.53
2018-09-28T15:52:21.569Z,12.40
2018-09-28T15:57:14.360Z,6.67
2018-09-28T16:02:07.483Z,7.90
2018-09-28T16:07:00.288Z,9.10
2018-09-28T16:11:52.956Z,9.17
2018-09-28T16:16:45.737Z,7.07
2018-09-28T16:21:38.494Z,4.47
2018-09-28T16:26:31.138Z,10.67
2018-09-28T16:31:23.850Z,6.43
2018-09-28T16:36:16.571Z,8.90
2018-09-28T16:41:09.378Z,8.77
2018-09-28T16:46:02.082Z,6.47
2018-09-28T16:50:54.774Z,5.13
2018-09-28T16:55:47.429Z,5.53
2018-09-28T17:00:40.119Z,9.13
2018-09-28T17:05:32.957Z,9.27
2018-09-28T17:10:26.073Z,6.80
2018-09-28T17:15:18.908Z,7.10
2018-09-28T17:20:11.559Z,10.47
2018-09-28T17:25:04.221Z,8.30
2018-09-28T17:29:57.066Z,9.17
2018-09-28T17:34:49.775Z,6.97
2018-09-28T17:39:42.451Z,13.07
2018-09-28T17:44:35.089Z,8.60
2018-09-28T17:49:27.744Z,12.80
2018-09-28T17:54:20.407Z,10.57
2018-09-28T17:59:13.005Z,7.67
2018-09-28T18:04:05.737Z,3.53
2018-09-28T18:08:58.410Z,7.43
2018-09-28T18:13:51.048Z,8.80
2018-09-28T18:18:43.774Z,5.60
2018-09-28T18:23:36.470Z,9.30
2018-09-28T18:28:29.135Z,4.90
2018-09-28T18:33:21.897Z,9.67
2018-09-28T18:38:14.501Z,8.88
2018-09-28T18:43:07.122Z,12.87
2018-09-28T18:47:59.810Z,8.50
2018-09-28T18:52:52.458Z,5.60
2018-09-28T18:57:45.134Z,5.40
2018-09-28T19:02:37.882Z,8.37
2018-09-28T19:07:31.103Z,10.50
2018-09-28T19:12:23.704Z,5.50
2018-09-28T19:17:16.317Z,7.87
2018-09-28T19:22:09.047Z,9.80
2018-09-28T19:27:01.690Z,7.77
2018-09-28T19:39:11.352Z,10.67
2018-09-28T19:44:04.095Z,6.37
2018-09-28T19:48:56.797Z,10.67
2018-09-28T19:53:49.458Z,7.90
2018-09-28T19:58:42.198Z,11.77
2018-09-28T20:03:34.891Z,8.03
2018-09-28T20:08:27.543Z,17.57
2018-09-28T20:13:20.307Z,10.77
2018-09-28T20:18:12.909Z,12.93
2018-09-28T20:23:05.947Z,9.83
2018-09-28T20:27:58.988Z,10.60
2018-09-28T20:32:52.220Z,10.93
2018-09-28T20:37:45.085Z,10.00
2018-09-28T20:42:38.263Z,10.60
2018-09-28T20:47:31.378Z,9.87
2018-09-28T20:52:24.488Z,11.53
2018-09-28T20:57:17.458Z,10.33
2018-09-28T21:02:10.193Z,11.93
2018-09-28T21:07:02.861Z,14.37
2018-09-28T21:11:55.722Z,12.87
2018-09-28T21:16:48.694Z,9.90
2018-09-28T21:21:41.768Z,14.90
2018-09-28T21:26:35.365Z,12.53
2018-09-28T21:31:28.229Z,11.63
2018-09-28T21:36:21.140Z,8.67
2018-09-28T21:41:14.181Z,12.43
2018-09-28T21:46:07.098Z,12.20
2018-09-28T21:50:59.847Z,10.67
2018-09-28T21:55:52.470Z,7.37
2018-09-28T22:00:46.910Z,7.50
2018-09-28T22:05:39.521Z,7.80
2018-09-28T22:10:32.694Z,10.83
2018-09-28T22:15:25.306Z,6.90
2018-09-28T22:20:17.970Z,8.63
2018-09-28T22:25:10.619Z,10.67
2018-09-28T22:30:03.240Z,9.23
2018-09-28T22:34:55.880Z,8.40
2018-09-28T22:39:48.473Z,9.07
2018-09-28T22:44:41.049Z,12.07
2018-09-28T22:49:33.674Z,9.90
2018-09-28T22:54:26.306Z,11.23
2018-09-28T22:59:19.199Z,12.23
2018-09-28T23:04:11.819Z,7.00
2018-09-28T23:09:05.891Z,7.53
2018-09-28T23:13:58.494Z,5.77
2018-09-28T23:18:51.110Z,5.83
2018-09-28T23:23:43.714Z,8.77
2018-09-28T23:28:36.386Z,6.73
2018-09-28T23:33:29.038Z,13.33
2018-09-28T23:38:21.590Z,8.73
2018-09-28T23:43:14.178Z,9.57
2018-09-28T23:48:06.806Z,13.00
2018-09-28T23:52:59.437Z,10.37
2018-09-28T23:57:52.046Z,9.53
